KIJX/IJX METAR and TAF weather

Enter ICAO airport designator
Station Type Date Time Source
KIJX METAR 2021/05/07 00:35 UTC NOAA

KIJX 070035Z AUTO 32007KT 10SM CLR 15/00 A3011 RMK AO2 T01451003


Station Type Date Time Source
KIJX Decoded METAR 2021/05/07 00:35 UTC NOAA

Jacksonville, Jacksonville Municipal Airport, IL, United States (KIJX) 39-46-27N 090-14-19W
May 06, 2021 - 08:35 PM EDT / 2021.05.07 0035 UTC
Wind: from the NW (320 degrees) at 8 MPH (7 KT):0
Visibility: 10 mile(s):0
Sky conditions: clear
Temperature: 58.1 F (14.5 C)
Dew Point: 31.5 F (-0.3 C)
Relative Humidity: 36%
Pressure (altimeter): 30.11 in. Hg (1019 hPa)
ob: KIJX 070035Z AUTO 32007KT 10SM CLR 15/00 A3011 RMK AO2 T01451003
cycle: 0

Station Type Date Time Source
KIJX TAF UTC NOAA

Error!

Example: see airport list